sensor_id;sensor_type;location;lat;lon;timestamp;P1;durP1;ratioP1;P2;durP2;ratioP2
1625;SDS011;806;48.770;9.156;2024-03-02T00:00:53;3.95;;;2.10;;
1625;SDS011;806;48.770;9.156;2024-03-02T00:03:20;4.38;;;1.90;;
1625;SDS011;806;48.770;9.156;2024-03-02T00:05:50;4.97;;;1.95;;
1625;SDS011;806;48.770;9.156;2024-03-02T00:08:22;4.03;;;1.60;;
1625;SDS011;806;48.770;9.156;2024-03-02T00:10:51;3.23;;;1.60;;
1625;SDS011;806;48.770;9.156;2024-03-02T00:13:23;2.90;;;1.40;;
1625;SDS011;806;48.770;9.156;2024-03-02T00:15:52;4.88;;;1.90;;
1625;SDS011;806;48.770;9.156;2024-03-02T00:18:24;3.88;;;1.90;;
1625;SDS011;806;48.770;9.156;2024-03-02T00:20:52;3.30;;;1.83;;
1625;SDS011;806;48.770;9.156;2024-03-02T00:23:22;2.00;;;1.50;;
1625;SDS011;806;48.770;9.156;2024-03-02T00:25:50;2.88;;;1.50;;
1625;SDS011;806;48.770;9.156;2024-03-02T00:28:20;4.20;;;1.63;;
1625;SDS011;806;48.770;9.156;2024-03-02T00:33:34;2.95;;;1.67;;
1625;SDS011;806;48.770;9.156;2024-03-02T00:36:03;3.25;;;1.60;;
1625;SDS011;806;48.770;9.156;2024-03-02T00:38:31;3.40;;;1.40;;
1625;SDS011;806;48.770;9.156;2024-03-02T00:40:58;3.75;;;1.67;;
1625;SDS011;806;48.770;9.156;2024-03-02T00:43:43;4.13;;;1.80;;
1625;SDS011;806;48.770;9.156;2024-03-02T00:46:15;3.28;;;1.60;;
1625;SDS011;806;48.770;9.156;2024-03-02T00:48:48;3.58;;;1.88;;
1625;SDS011;806;48.770;9.156;2024-03-02T00:51:20;5.15;;;1.95;;
1625;SDS011;806;48.770;9.156;2024-03-02T00:53:48;3.37;;;1.43;;
1625;SDS011;806;48.770;9.156;2024-03-02T00:56:18;3.10;;;1.40;;
1625;SDS011;806;48.770;9.156;2024-03-02T00:58:46;4.28;;;1.42;;
1625;SDS011;806;48.770;9.156;2024-03-02T01:01:14;4.22;;;1.50;;
1625;SDS011;806;48.770;9.156;2024-03-02T01:03:41;3.22;;;1.60;;
1625;SDS011;806;48.770;9.156;2024-03-02T01:06:08;4.10;;;1.80;;
1625;SDS011;806;48.770;9.156;2024-03-02T01:08:35;2.22;;;1.20;;
1625;SDS011;806;48.770;9.156;2024-03-02T01:11:02;4.22;;;1.30;;
1625;SDS011;806;48.770;9.156;2024-03-02T01:13:30;3.67;;;1.35;;
1625;SDS011;806;48.770;9.156;2024-03-02T01:15:57;3.28;;;1.58;;
1625;SDS011;806;48.770;9.156;2024-03-02T01:18:26;3.25;;;1.40;;
1625;SDS011;806;48.770;9.156;2024-03-02T01:20:53;4.15;;;1.30;;
1625;SDS011;806;48.770;9.156;2024-03-02T01:23:21;4.25;;;1.55;;
1625;SDS011;806;48.770;9.156;2024-03-02T01:25:48;3.03;;;1.23;;
1625;SDS011;806;48.770;9.156;2024-03-02T01:28:15;3.10;;;1.40;;
1625;SDS011;806;48.770;9.156;2024-03-02T01:30:43;3.60;;;1.40;;
1625;SDS011;806;48.770;9.156;2024-03-02T01:33:10;4.10;;;1.52;;
1625;SDS011;806;48.770;9.156;2024-03-02T01:35:38;2.83;;;1.67;;
1625;SDS011;806;48.770;9.156;2024-03-02T01:38:05;3.20;;;1.50;;
1625;SDS011;806;48.770;9.156;2024-03-02T01:40:32;2.80;;;1.53;;
1625;SDS011;806;48.770;9.156;2024-03-02T01:43:00;3.60;;;1.40;;
1625;SDS011;806;48.770;9.156;2024-03-02T01:45:27;3.80;;;1.40;;
1625;SDS011;806;48.770;9.156;2024-03-02T01:47:55;3.10;;;1.55;;
1625;SDS011;806;48.770;9.156;2024-03-02T01:50:25;5.00;;;1.63;;
1625;SDS011;806;48.770;9.156;2024-03-02T01:52:55;3.58;;;1.40;;
1625;SDS011;806;48.770;9.156;2024-03-02T01:55:22;3.47;;;1.67;;
1625;SDS011;806;48.770;9.156;2024-03-02T01:57:49;3.07;;;1.20;;
1625;SDS011;806;48.770;9.156;2024-03-02T02:00:17;2.65;;;1.40;;
1625;SDS011;806;48.770;9.156;2024-03-02T02:02:45;2.70;;;1.40;;
1625;SDS011;806;48.770;9.156;2024-03-02T02:05:12;3.13;;;1.20;;
1625;SDS011;806;48.770;9.156;2024-03-02T02:07:39;2.92;;;1.40;;
1625;SDS011;806;48.770;9.156;2024-03-02T02:10:08;2.90;;;1.48;;
1625;SDS011;806;48.770;9.156;2024-03-02T02:12:36;2.53;;;1.40;;
1625;SDS011;806;48.770;9.156;2024-03-02T02:15:03;4.60;;;1.60;;
1625;SDS011;806;48.770;9.156;2024-03-02T02:17:47;4.20;;;1.50;;
1625;SDS011;806;48.770;9.156;2024-03-02T02:20:14;2.80;;;1.40;;
1625;SDS011;806;48.770;9.156;2024-03-02T02:22:53;4.40;;;1.90;;
1625;SDS011;806;48.770;9.156;2024-03-02T02:25:21;2.95;;;1.60;;
1625;SDS011;806;48.770;9.156;2024-03-02T02:27:48;4.40;;;1.60;;
1625;SDS011;806;48.770;9.156;2024-03-02T02:30:18;3.70;;;1.50;;
1625;SDS011;806;48.770;9.156;2024-03-02T02:32:45;3.78;;;1.80;;
1625;SDS011;806;48.770;9.156;2024-03-02T02:35:12;4.75;;;1.42;;
1625;SDS011;806;48.770;9.156;2024-03-02T02:37:39;2.60;;;1.57;;
1625;SDS011;806;48.770;9.156;2024-03-02T02:40:09;3.80;;;1.63;;
1625;SDS011;806;48.770;9.156;2024-03-02T02:42:36;3.38;;;2.13;;
1625;SDS011;806;48.770;9.156;2024-03-02T02:45:03;4.32;;;1.80;;
1625;SDS011;806;48.770;9.156;2024-03-02T02:47:31;3.05;;;1.40;;
1625;SDS011;806;48.770;9.156;2024-03-02T02:50:00;5.45;;;2.30;;
1625;SDS011;806;48.770;9.156;2024-03-02T02:52:30;3.77;;;1.80;;
1625;SDS011;806;48.770;9.156;2024-03-02T02:54:59;5.47;;;1.80;;
1625;SDS011;806;48.770;9.156;2024-03-02T02:57:27;4.95;;;1.63;;
1625;SDS011;806;48.770;9.156;2024-03-02T03:00:00;6.60;;;2.05;;
1625;SDS011;806;48.770;9.156;2024-03-02T03:02:29;6.30;;;1.90;;
1625;SDS011;806;48.770;9.156;2024-03-02T03:04:56;4.40;;;1.80;;
1625;SDS011;806;48.770;9.156;2024-03-02T03:07:23;5.70;;;1.60;;
1625;SDS011;806;48.770;9.156;2024-03-02T03:09:51;4.20;;;1.70;;
1625;SDS011;806;48.770;9.156;2024-03-02T03:12:18;5.60;;;1.70;;
1625;SDS011;806;48.770;9.156;2024-03-02T03:14:46;4.77;;;2.10;;
1625;SDS011;806;48.770;9.156;2024-03-02T03:17:13;5.35;;;2.17;;
1625;SDS011;806;48.770;9.156;2024-03-02T03:19:40;5.35;;;2.42;;
1625;SDS011;806;48.770;9.156;2024-03-02T03:22:07;3.67;;;1.60;;
1625;SDS011;806;48.770;9.156;2024-03-02T03:24:34;4.30;;;1.80;;
1625;SDS011;806;48.770;9.156;2024-03-02T03:27:01;4.10;;;1.85;;
1625;SDS011;806;48.770;9.156;2024-03-02T03:29:27;4.57;;;1.70;;
1625;SDS011;806;48.770;9.156;2024-03-02T03:31:56;4.40;;;2.08;;
1625;SDS011;806;48.770;9.156;2024-03-02T03:34:23;4.90;;;1.77;;
1625;SDS011;806;48.770;9.156;2024-03-02T03:36:50;4.38;;;1.85;;
1625;SDS011;806;48.770;9.156;2024-03-02T03:39:16;4.90;;;1.90;;
1625;SDS011;806;48.770;9.156;2024-03-02T03:41:46;3.78;;;1.73;;
1625;SDS011;806;48.770;9.156;2024-03-02T03:44:14;6.10;;;2.50;;
1625;SDS011;806;48.770;9.156;2024-03-02T03:46:40;5.00;;;2.15;;
1625;SDS011;806;48.770;9.156;2024-03-02T03:49:09;3.88;;;1.83;;
1625;SDS011;806;48.770;9.156;2024-03-02T03:51:35;5.00;;;2.10;;
1625;SDS011;806;48.770;9.156;2024-03-02T03:54:02;4.25;;;2.03;;
1625;SDS011;806;48.770;9.156;2024-03-02T03:56:29;4.70;;;1.75;;
1625;SDS011;806;48.770;9.156;2024-03-02T03:58:56;4.28;;;1.77;;
1625;SDS011;806;48.770;9.156;2024-03-02T04:01:24;4.90;;;1.90;;
1625;SDS011;806;48.770;9.156;2024-03-02T04:03:51;5.63;;;2.20;;
1625;SDS011;806;48.770;9.156;2024-03-02T04:06:20;5.18;;;2.53;;
1625;SDS011;806;48.770;9.156;2024-03-02T04:08:47;5.60;;;1.95;;
1625;SDS011;806;48.770;9.156;2024-03-02T04:11:13;5.45;;;2.35;;
1625;SDS011;806;48.770;9.156;2024-03-02T04:13:40;4.97;;;2.58;;
1625;SDS011;806;48.770;9.156;2024-03-02T04:16:07;5.03;;;1.88;;
1625;SDS011;806;48.770;9.156;2024-03-02T04:18:34;4.60;;;1.80;;
1625;SDS011;806;48.770;9.156;2024-03-02T04:21:01;4.60;;;2.15;;
1625;SDS011;806;48.770;9.156;2024-03-02T04:23:30;4.78;;;1.92;;
1625;SDS011;806;48.770;9.156;2024-03-02T04:25:57;3.97;;;1.60;;
1625;SDS011;806;48.770;9.156;2024-03-02T04:28:24;5.40;;;1.63;;
1625;SDS011;806;48.770;9.156;2024-03-02T04:30:51;5.00;;;1.60;;
1625;SDS011;806;48.770;9.156;2024-03-02T04:33:18;3.97;;;1.67;;
1625;SDS011;806;48.770;9.156;2024-03-02T04:35:45;4.53;;;1.98;;
1625;SDS011;806;48.770;9.156;2024-03-02T04:38:15;5.80;;;1.50;;
1625;SDS011;806;48.770;9.156;2024-03-02T04:40:43;4.50;;;2.00;;
1625;SDS011;806;48.770;9.156;2024-03-02T04:43:10;5.53;;;1.90;;
1625;SDS011;806;48.770;9.156;2024-03-02T04:45:40;4.93;;;2.35;;
1625;SDS011;806;48.770;9.156;2024-03-02T04:48:07;5.15;;;1.70;;
1625;SDS011;806;48.770;9.156;2024-03-02T04:50:35;5.65;;;3.05;;
1625;SDS011;806;48.770;9.156;2024-03-02T04:53:02;4.40;;;1.77;;
1625;SDS011;806;48.770;9.156;2024-03-02T04:55:29;5.70;;;2.03;;
1625;SDS011;806;48.770;9.156;2024-03-02T04:58:23;7.30;;;2.25;;
1625;SDS011;806;48.770;9.156;2024-03-02T05:00:52;6.43;;;2.10;;
1625;SDS011;806;48.770;9.156;2024-03-02T05:03:19;4.72;;;2.00;;
1625;SDS011;806;48.770;9.156;2024-03-02T05:05:46;4.95;;;2.03;;
1625;SDS011;806;48.770;9.156;2024-03-02T05:08:13;7.03;;;2.00;;
1625;SDS011;806;48.770;9.156;2024-03-02T05:10:42;5.38;;;2.28;;
1625;SDS011;806;48.770;9.156;2024-03-02T05:13:09;7.95;;;3.05;;
1625;SDS011;806;48.770;9.156;2024-03-02T05:15:36;5.75;;;2.08;;
1625;SDS011;806;48.770;9.156;2024-03-02T05:18:03;5.20;;;2.40;;
1625;SDS011;806;48.770;9.156;2024-03-02T05:20:32;5.47;;;1.77;;
1625;SDS011;806;48.770;9.156;2024-03-02T05:22:59;6.82;;;2.20;;
1625;SDS011;806;48.770;9.156;2024-03-02T05:25:26;4.78;;;1.70;;
1625;SDS011;806;48.770;9.156;2024-03-02T05:27:53;4.32;;;1.98;;
1625;SDS011;806;48.770;9.156;2024-03-02T05:30:20;5.03;;;1.75;;
1625;SDS011;806;48.770;9.156;2024-03-02T05:32:48;5.18;;;1.95;;
1625;SDS011;806;48.770;9.156;2024-03-02T05:35:16;4.60;;;2.40;;
1625;SDS011;806;48.770;9.156;2024-03-02T05:37:44;4.47;;;1.77;;
1625;SDS011;806;48.770;9.156;2024-03-02T05:40:11;4.53;;;1.70;;
1625;SDS011;806;48.770;9.156;2024-03-02T05:42:38;4.57;;;1.50;;
1625;SDS011;806;48.770;9.156;2024-03-02T05:45:06;4.23;;;1.93;;
1625;SDS011;806;48.770;9.156;2024-03-02T05:47:34;5.70;;;2.30;;
1625;SDS011;806;48.770;9.156;2024-03-02T05:50:02;5.20;;;1.98;;
1625;SDS011;806;48.770;9.156;2024-03-02T05:52:30;4.47;;;1.80;;
1625;SDS011;806;48.770;9.156;2024-03-02T05:54:57;4.78;;;2.50;;
1625;SDS011;806;48.770;9.156;2024-03-02T05:57:24;4.65;;;1.38;;
1625;SDS011;806;48.770;9.156;2024-03-02T06:00:10;4.30;;;1.63;;
1625;SDS011;806;48.770;9.156;2024-03-02T06:02:39;5.10;;;2.03;;
1625;SDS011;806;48.770;9.156;2024-03-02T06:05:07;5.40;;;2.00;;
1625;SDS011;806;48.770;9.156;2024-03-02T06:07:34;4.87;;;1.70;;
1625;SDS011;806;48.770;9.156;2024-03-02T06:10:01;6.10;;;2.38;;
1625;SDS011;806;48.770;9.156;2024-03-02T06:12:28;4.60;;;2.07;;
1625;SDS011;806;48.770;9.156;2024-03-02T06:14:57;6.75;;;1.90;;
1625;SDS011;806;48.770;9.156;2024-03-02T06:17:24;3.10;;;1.40;;
1625;SDS011;806;48.770;9.156;2024-03-02T06:19:51;5.60;;;1.90;;
1625;SDS011;806;48.770;9.156;2024-03-02T06:22:19;4.10;;;1.50;;
1625;SDS011;806;48.770;9.156;2024-03-02T06:24:48;3.43;;;1.60;;
1625;SDS011;806;48.770;9.156;2024-03-02T06:27:14;4.40;;;1.80;;
1625;SDS011;806;48.770;9.156;2024-03-02T06:29:41;5.75;;;2.10;;
1625;SDS011;806;48.770;9.156;2024-03-02T06:32:08;4.60;;;1.70;;
1625;SDS011;806;48.770;9.156;2024-03-02T06:34:35;5.97;;;2.05;;
1625;SDS011;806;48.770;9.156;2024-03-02T06:37:02;4.20;;;2.00;;
1625;SDS011;806;48.770;9.156;2024-03-02T06:39:31;4.80;;;1.97;;
1625;SDS011;806;48.770;9.156;2024-03-02T06:41:59;5.00;;;2.00;;
1625;SDS011;806;48.770;9.156;2024-03-02T06:44:26;5.50;;;1.90;;
1625;SDS011;806;48.770;9.156;2024-03-02T06:46:53;4.45;;;1.80;;
1625;SDS011;806;48.770;9.156;2024-03-02T06:49:20;4.90;;;1.60;;
1625;SDS011;806;48.770;9.156;2024-03-02T06:51:47;5.00;;;1.90;;
1625;SDS011;806;48.770;9.156;2024-03-02T06:54:15;5.07;;;1.52;;
1625;SDS011;806;48.770;9.156;2024-03-02T06:56:46;4.38;;;1.90;;
1625;SDS011;806;48.770;9.156;2024-03-02T06:59:13;5.25;;;1.40;;
1625;SDS011;806;48.770;9.156;2024-03-02T07:01:39;4.07;;;1.73;;
1625;SDS011;806;48.770;9.156;2024-03-02T07:04:07;3.05;;;1.50;;
1625;SDS011;806;48.770;9.156;2024-03-02T07:06:32;4.78;;;1.75;;
1625;SDS011;806;48.770;9.156;2024-03-02T07:08:59;5.30;;;2.20;;
1625;SDS011;806;48.770;9.156;2024-03-02T07:11:26;3.83;;;1.52;;
1625;SDS011;806;48.770;9.156;2024-03-02T07:13:54;4.25;;;1.80;;
1625;SDS011;806;48.770;9.156;2024-03-02T07:16:21;3.95;;;1.70;;
1625;SDS011;806;48.770;9.156;2024-03-02T07:18:53;3.67;;;1.50;;
1625;SDS011;806;48.770;9.156;2024-03-02T07:21:21;4.30;;;1.48;;
1625;SDS011;806;48.770;9.156;2024-03-02T07:23:48;5.93;;;1.90;;
1625;SDS011;806;48.770;9.156;2024-03-02T07:26:15;4.97;;;1.75;;
1625;SDS011;806;48.770;9.156;2024-03-02T07:28:43;4.10;;;1.95;;
1625;SDS011;806;48.770;9.156;2024-03-02T07:31:11;4.22;;;1.70;;
1625;SDS011;806;48.770;9.156;2024-03-02T07:33:38;6.20;;;2.00;;
1625;SDS011;806;48.770;9.156;2024-03-02T07:36:05;4.10;;;2.00;;
1625;SDS011;806;48.770;9.156;2024-03-02T07:38:33;4.65;;;2.05;;
1625;SDS011;806;48.770;9.156;2024-03-02T07:41:00;3.70;;;1.30;;
1625;SDS011;806;48.770;9.156;2024-03-02T07:43:27;3.35;;;1.30;;
1625;SDS011;806;48.770;9.156;2024-03-02T07:45:54;4.05;;;1.80;;
1625;SDS011;806;48.770;9.156;2024-03-02T07:48:23;4.32;;;1.40;;
1625;SDS011;806;48.770;9.156;2024-03-02T07:50:50;4.15;;;1.63;;
1625;SDS011;806;48.770;9.156;2024-03-02T07:53:17;3.97;;;1.90;;
1625;SDS011;806;48.770;9.156;2024-03-02T07:55:44;2.60;;;1.27;;
1625;SDS011;806;48.770;9.156;2024-03-02T07:58:11;1.92;;;1.10;;
1625;SDS011;806;48.770;9.156;2024-03-02T08:00:38;3.47;;;1.27;;
1625;SDS011;806;48.770;9.156;2024-03-02T08:03:05;3.10;;;1.35;;
1625;SDS011;806;48.770;9.156;2024-03-02T08:05:36;3.40;;;1.60;;
1625;SDS011;806;48.770;9.156;2024-03-02T08:08:03;2.90;;;1.40;;
1625;SDS011;806;48.770;9.156;2024-03-02T08:10:30;3.30;;;1.50;;
1625;SDS011;806;48.770;9.156;2024-03-02T08:12:59;2.70;;;1.40;;
1625;SDS011;806;48.770;9.156;2024-03-02T08:15:26;3.35;;;1.70;;
1625;SDS011;806;48.770;9.156;2024-03-02T08:17:53;2.33;;;1.40;;
1625;SDS011;806;48.770;9.156;2024-03-02T08:20:21;3.80;;;1.60;;
1625;SDS011;806;48.770;9.156;2024-03-02T08:22:49;3.30;;;1.52;;
1625;SDS011;806;48.770;9.156;2024-03-02T08:25:16;4.55;;;1.50;;
1625;SDS011;806;48.770;9.156;2024-03-02T08:27:44;2.63;;;1.40;;
1625;SDS011;806;48.770;9.156;2024-03-02T08:30:11;3.70;;;1.60;;
1625;SDS011;806;48.770;9.156;2024-03-02T08:32:38;2.95;;;1.30;;
1625;SDS011;806;48.770;9.156;2024-03-02T08:35:08;2.80;;;1.40;;
1625;SDS011;806;48.770;9.156;2024-03-02T08:37:36;3.17;;;1.40;;
1625;SDS011;806;48.770;9.156;2024-03-02T08:40:07;4.60;;;1.80;;
1625;SDS011;806;48.770;9.156;2024-03-02T08:42:35;2.37;;;1.30;;
1625;SDS011;806;48.770;9.156;2024-03-02T08:45:02;3.57;;;1.53;;
1625;SDS011;806;48.770;9.156;2024-03-02T08:47:29;4.80;;;1.30;;
1625;SDS011;806;48.770;9.156;2024-03-02T08:49:56;3.30;;;1.45;;
1625;SDS011;806;48.770;9.156;2024-03-02T08:52:23;2.40;;;1.20;;
1625;SDS011;806;48.770;9.156;2024-03-02T08:54:50;4.18;;;1.30;;
1625;SDS011;806;48.770;9.156;2024-03-02T08:57:18;2.10;;;1.10;;
1625;SDS011;806;48.770;9.156;2024-03-02T08:59:45;2.58;;;1.10;;
1625;SDS011;806;48.770;9.156;2024-03-02T09:02:12;2.58;;;1.27;;
1625;SDS011;806;48.770;9.156;2024-03-02T09:04:39;2.00;;;1.05;;
1625;SDS011;806;48.770;9.156;2024-03-02T09:07:06;2.33;;;1.10;;
1625;SDS011;806;48.770;9.156;2024-03-02T09:09:33;1.58;;;1.10;;
1625;SDS011;806;48.770;9.156;2024-03-02T09:12:03;2.00;;;1.10;;
1625;SDS011;806;48.770;9.156;2024-03-02T09:14:32;1.58;;;0.95;;
1625;SDS011;806;48.770;9.156;2024-03-02T09:16:59;3.20;;;0.98;;
1625;SDS011;806;48.770;9.156;2024-03-02T09:19:27;1.90;;;1.08;;
1625;SDS011;806;48.770;9.156;2024-03-02T09:21:54;3.08;;;1.38;;
1625;SDS011;806;48.770;9.156;2024-03-02T09:24:23;2.42;;;1.30;;
1625;SDS011;806;48.770;9.156;2024-03-02T09:26:50;2.00;;;0.90;;
1625;SDS011;806;48.770;9.156;2024-03-02T09:29:17;3.58;;;1.00;;
1625;SDS011;806;48.770;9.156;2024-03-02T09:31:47;2.90;;;1.10;;
1625;SDS011;806;48.770;9.156;2024-03-02T09:34:14;3.13;;;0.97;;
1625;SDS011;806;48.770;9.156;2024-03-02T09:36:41;1.55;;;0.90;;
1625;SDS011;806;48.770;9.156;2024-03-02T09:39:08;2.40;;;1.00;;
1625;SDS011;806;48.770;9.156;2024-03-02T09:41:36;2.78;;;1.30;;
1625;SDS011;806;48.770;9.156;2024-03-02T09:44:03;1.70;;;0.80;;
1625;SDS011;806;48.770;9.156;2024-03-02T09:46:30;1.30;;;0.90;;
1625;SDS011;806;48.770;9.156;2024-03-02T09:48:59;1.40;;;0.80;;
1625;SDS011;806;48.770;9.156;2024-03-02T09:51:26;1.80;;;0.90;;
1625;SDS011;806;48.770;9.156;2024-03-02T09:53:54;1.58;;;0.88;;
1625;SDS011;806;48.770;9.156;2024-03-02T09:56:21;1.30;;;0.70;;
1625;SDS011;806;48.770;9.156;2024-03-02T09:58:48;1.10;;;0.70;;
1625;SDS011;806;48.770;9.156;2024-03-02T10:01:15;2.20;;;0.70;;
1625;SDS011;806;48.770;9.156;2024-03-02T10:03:42;1.20;;;0.80;;
1625;SDS011;806;48.770;9.156;2024-03-02T10:06:19;2.70;;;0.90;;
1625;SDS011;806;48.770;9.156;2024-03-02T10:08:47;1.50;;;0.80;;
1625;SDS011;806;48.770;9.156;2024-03-02T10:11:25;1.63;;;0.70;;
1625;SDS011;806;48.770;9.156;2024-03-02T10:14:06;1.30;;;0.70;;
1625;SDS011;806;48.770;9.156;2024-03-02T10:16:35;1.60;;;0.70;;
1625;SDS011;806;48.770;9.156;2024-03-02T10:19:15;1.08;;;0.80;;
1625;SDS011;806;48.770;9.156;2024-03-02T10:21:44;1.30;;;0.70;;
1625;SDS011;806;48.770;9.156;2024-03-02T10:24:12;4.15;;;1.50;;
1625;SDS011;806;48.770;9.156;2024-03-02T10:26:42;2.25;;;0.80;;
1625;SDS011;806;48.770;9.156;2024-03-02T10:29:11;1.60;;;0.80;;
1625;SDS011;806;48.770;9.156;2024-03-02T10:31:38;1.05;;;0.70;;
1625;SDS011;806;48.770;9.156;2024-03-02T10:34:06;1.10;;;0.70;;
1625;SDS011;806;48.770;9.156;2024-03-02T10:36:34;1.30;;;0.60;;
1625;SDS011;806;48.770;9.156;2024-03-02T10:39:03;1.02;;;0.60;;
1625;SDS011;806;48.770;9.156;2024-03-02T10:41:32;1.30;;;0.60;;
1625;SDS011;806;48.770;9.156;2024-03-02T10:44:02;1.10;;;0.60;;
1625;SDS011;806;48.770;9.156;2024-03-02T10:46:30;1.50;;;0.70;;
1625;SDS011;806;48.770;9.156;2024-03-02T10:49:00;1.00;;;0.70;;
1625;SDS011;806;48.770;9.156;2024-03-02T10:51:29;1.10;;;0.60;;
1625;SDS011;806;48.770;9.156;2024-03-02T10:53:57;1.97;;;0.70;;
1625;SDS011;806;48.770;9.156;2024-03-02T10:56:28;1.20;;;0.63;;
1625;SDS011;806;48.770;9.156;2024-03-02T10:58:59;1.10;;;0.70;;
1625;SDS011;806;48.770;9.156;2024-03-02T11:01:29;0.70;;;0.50;;
1625;SDS011;806;48.770;9.156;2024-03-02T11:03:57;0.90;;;0.60;;
1625;SDS011;806;48.770;9.156;2024-03-02T11:06:28;1.10;;;0.60;;
1625;SDS011;806;48.770;9.156;2024-03-02T11:08:58;1.00;;;0.68;;
1625;SDS011;806;48.770;9.156;2024-03-02T11:11:36;1.00;;;0.60;;
1625;SDS011;806;48.770;9.156;2024-03-02T11:14:07;1.00;;;0.60;;
1625;SDS011;806;48.770;9.156;2024-03-02T11:16:37;0.90;;;0.50;;
1625;SDS011;806;48.770;9.156;2024-03-02T11:19:06;0.80;;;0.50;;
1625;SDS011;806;48.770;9.156;2024-03-02T11:21:36;1.10;;;0.70;;
1625;SDS011;806;48.770;9.156;2024-03-02T11:26:59;0.90;;;0.60;;
1625;SDS011;806;48.770;9.156;2024-03-02T11:29:45;0.80;;;0.50;;
1625;SDS011;806;48.770;9.156;2024-03-02T11:32:13;0.52;;;0.30;;
1625;SDS011;806;48.770;9.156;2024-03-02T11:34:45;0.70;;;0.30;;
1625;SDS011;806;48.770;9.156;2024-03-02T11:37:14;1.50;;;0.30;;
1625;SDS011;806;48.770;9.156;2024-03-02T11:39:42;0.47;;;0.20;;
1625;SDS011;806;48.770;9.156;2024-03-02T11:42:14;0.50;;;0.20;;
1625;SDS011;806;48.770;9.156;2024-03-02T11:44:42;0.40;;;0.20;;
1625;SDS011;806;48.770;9.156;2024-03-02T11:47:12;0.40;;;0.20;;
1625;SDS011;806;48.770;9.156;2024-03-02T11:49:41;0.50;;;0.10;;
1625;SDS011;806;48.770;9.156;2024-03-02T11:52:10;0.50;;;0.20;;
1625;SDS011;806;48.770;9.156;2024-03-02T11:54:39;0.40;;;0.20;;
1625;SDS011;806;48.770;9.156;2024-03-02T11:57:11;0.30;;;0.20;;
1625;SDS011;806;48.770;9.156;2024-03-02T11:59:40;0.40;;;0.20;;
1625;SDS011;806;48.770;9.156;2024-03-02T12:02:12;0.40;;;0.20;;
1625;SDS011;806;48.770;9.156;2024-03-02T12:04:41;1.10;;;0.20;;
1625;SDS011;806;48.770;9.156;2024-03-02T12:07:09;0.90;;;0.20;;
1625;SDS011;806;48.770;9.156;2024-03-02T12:09:37;0.40;;;0.10;;
1625;SDS011;806;48.770;9.156;2024-03-02T12:12:04;0.68;;;0.20;;
1625;SDS011;806;48.770;9.156;2024-03-02T12:14:34;0.40;;;0.20;;
1625;SDS011;806;48.770;9.156;2024-03-02T12:17:02;0.40;;;0.20;;
1625;SDS011;806;48.770;9.156;2024-03-02T12:19:30;0.40;;;0.10;;
1625;SDS011;806;48.770;9.156;2024-03-02T12:21:58;0.40;;;0.20;;
1625;SDS011;806;48.770;9.156;2024-03-02T12:24:26;0.40;;;0.20;;
1625;SDS011;806;48.770;9.156;2024-03-02T12:26:54;0.40;;;0.20;;
1625;SDS011;806;48.770;9.156;2024-03-02T12:29:22;0.43;;;0.20;;
1625;SDS011;806;48.770;9.156;2024-03-02T12:31:51;0.40;;;0.20;;
1625;SDS011;806;48.770;9.156;2024-03-02T12:34:19;0.50;;;0.20;;
1625;SDS011;806;48.770;9.156;2024-03-02T12:36:47;0.60;;;0.20;;
1625;SDS011;806;48.770;9.156;2024-03-02T12:39:18;0.50;;;0.20;;
1625;SDS011;806;48.770;9.156;2024-03-02T12:41:45;0.80;;;0.22;;
1625;SDS011;806;48.770;9.156;2024-03-02T12:44:15;0.60;;;0.30;;
1625;SDS011;806;48.770;9.156;2024-03-02T12:46:43;0.60;;;0.30;;
1625;SDS011;806;48.770;9.156;2024-03-02T12:49:13;0.50;;;0.30;;
1625;SDS011;806;48.770;9.156;2024-03-02T12:51:42;0.50;;;0.30;;
1625;SDS011;806;48.770;9.156;2024-03-02T12:54:12;0.60;;;0.20;;
1625;SDS011;806;48.770;9.156;2024-03-02T12:56:40;0.40;;;0.30;;
1625;SDS011;806;48.770;9.156;2024-03-02T12:59:10;0.50;;;0.30;;
1625;SDS011;806;48.770;9.156;2024-03-02T13:01:49;0.50;;;0.20;;
1625;SDS011;806;48.770;9.156;2024-03-02T13:04:21;1.10;;;0.40;;
1625;SDS011;806;48.770;9.156;2024-03-02T13:06:48;0.60;;;0.30;;
1625;SDS011;806;48.770;9.156;2024-03-02T13:09:16;0.60;;;0.30;;
1625;SDS011;806;48.770;9.156;2024-03-02T13:11:46;0.50;;;0.30;;
1625;SDS011;806;48.770;9.156;2024-03-02T13:14:16;0.60;;;0.30;;
1625;SDS011;806;48.770;9.156;2024-03-02T13:16:44;0.50;;;0.30;;
1625;SDS011;806;48.770;9.156;2024-03-02T13:19:12;0.55;;;0.30;;
1625;SDS011;806;48.770;9.156;2024-03-02T13:21:40;0.50;;;0.30;;
1625;SDS011;806;48.770;9.156;2024-03-02T13:24:07;0.55;;;0.30;;
1625;SDS011;806;48.770;9.156;2024-03-02T13:26:34;0.60;;;0.40;;
1625;SDS011;806;48.770;9.156;2024-03-02T13:29:04;0.60;;;0.30;;
1625;SDS011;806;48.770;9.156;2024-03-02T13:31:31;0.47;;;0.20;;
1625;SDS011;806;48.770;9.156;2024-03-02T13:33:57;0.60;;;0.30;;
1625;SDS011;806;48.770;9.156;2024-03-02T13:36:24;0.57;;;0.30;;
1625;SDS011;806;48.770;9.156;2024-03-02T13:38:55;0.52;;;0.30;;
1625;SDS011;806;48.770;9.156;2024-03-02T13:41:23;0.50;;;0.20;;
1625;SDS011;806;48.770;9.156;2024-03-02T13:43:50;1.10;;;0.30;;
1625;SDS011;806;48.770;9.156;2024-03-02T13:46:17;0.50;;;0.30;;
1625;SDS011;806;48.770;9.156;2024-03-02T13:48:43;0.50;;;0.30;;
1625;SDS011;806;48.770;9.156;2024-03-02T13:51:10;0.50;;;0.30;;
1625;SDS011;806;48.770;9.156;2024-03-02T13:53:37;0.50;;;0.30;;
1625;SDS011;806;48.770;9.156;2024-03-02T13:56:06;0.60;;;0.30;;
1625;SDS011;806;48.770;9.156;2024-03-02T13:58:33;1.50;;;0.30;;
1625;SDS011;806;48.770;9.156;2024-03-02T14:01:00;0.50;;;0.30;;
1625;SDS011;806;48.770;9.156;2024-03-02T14:03:29;0.50;;;0.30;;
1625;SDS011;806;48.770;9.156;2024-03-02T14:05:56;0.50;;;0.30;;
1625;SDS011;806;48.770;9.156;2024-03-02T14:08:26;0.50;;;0.30;;
1625;SDS011;806;48.770;9.156;2024-03-02T14:10:53;0.50;;;0.30;;
1625;SDS011;806;48.770;9.156;2024-03-02T14:13:22;0.50;;;0.30;;
1625;SDS011;806;48.770;9.156;2024-03-02T14:15:50;0.70;;;0.40;;
1625;SDS011;806;48.770;9.156;2024-03-02T14:18:20;0.70;;;0.30;;
1625;SDS011;806;48.770;9.156;2024-03-02T14:20:48;0.50;;;0.30;;
1625;SDS011;806;48.770;9.156;2024-03-02T14:23:20;0.60;;;0.30;;
1625;SDS011;806;48.770;9.156;2024-03-02T14:25:48;0.60;;;0.30;;
1625;SDS011;806;48.770;9.156;2024-03-02T14:28:14;0.80;;;0.30;;
1625;SDS011;806;48.770;9.156;2024-03-02T14:30:44;0.47;;;0.30;;
1625;SDS011;806;48.770;9.156;2024-03-02T14:33:11;0.40;;;0.30;;
1625;SDS011;806;48.770;9.156;2024-03-02T14:35:38;0.50;;;0.30;;
1625;SDS011;806;48.770;9.156;2024-03-02T14:38:05;0.60;;;0.30;;
1625;SDS011;806;48.770;9.156;2024-03-02T14:40:32;0.68;;;0.30;;
1625;SDS011;806;48.770;9.156;2024-03-02T14:42:59;0.70;;;0.40;;
1625;SDS011;806;48.770;9.156;2024-03-02T14:45:26;0.80;;;0.30;;
1625;SDS011;806;48.770;9.156;2024-03-02T14:47:56;0.70;;;0.40;;
1625;SDS011;806;48.770;9.156;2024-03-02T14:50:24;0.60;;;0.20;;
1625;SDS011;806;48.770;9.156;2024-03-02T14:52:51;0.60;;;0.30;;
1625;SDS011;806;48.770;9.156;2024-03-02T14:55:18;0.50;;;0.30;;
1625;SDS011;806;48.770;9.156;2024-03-02T14:57:45;0.52;;;0.30;;
1625;SDS011;806;48.770;9.156;2024-03-02T15:00:12;0.47;;;0.30;;
1625;SDS011;806;48.770;9.156;2024-03-02T15:02:39;0.80;;;0.20;;
1625;SDS011;806;48.770;9.156;2024-03-02T15:05:08;0.60;;;0.20;;
1625;SDS011;806;48.770;9.156;2024-03-02T15:07:34;0.40;;;0.20;;
1625;SDS011;806;48.770;9.156;2024-03-02T15:10:01;0.50;;;0.30;;
1625;SDS011;806;48.770;9.156;2024-03-02T15:12:29;0.60;;;0.30;;
1625;SDS011;806;48.770;9.156;2024-03-02T15:14:56;0.65;;;0.20;;
1625;SDS011;806;48.770;9.156;2024-03-02T15:17:23;0.43;;;0.30;;
1625;SDS011;806;48.770;9.156;2024-03-02T15:19:51;0.70;;;0.30;;
1625;SDS011;806;48.770;9.156;2024-03-02T15:22:19;0.50;;;0.30;;
1625;SDS011;806;48.770;9.156;2024-03-02T15:24:46;0.50;;;0.20;;
1625;SDS011;806;48.770;9.156;2024-03-02T15:27:16;0.50;;;0.22;;
1625;SDS011;806;48.770;9.156;2024-03-02T15:29:42;0.50;;;0.25;;
1625;SDS011;806;48.770;9.156;2024-03-02T15:32:09;0.70;;;0.20;;
1625;SDS011;806;48.770;9.156;2024-03-02T15:34:36;0.80;;;0.30;;
1625;SDS011;806;48.770;9.156;2024-03-02T15:37:03;0.70;;;0.35;;
1625;SDS011;806;48.770;9.156;2024-03-02T15:39:31;0.50;;;0.30;;
1625;SDS011;806;48.770;9.156;2024-03-02T15:41:58;0.70;;;0.30;;